Time;durP1;ratioP1;P1;durP2;ratioP2;P2;SDS_P1;SDS_P2;PMS_P1;PMS_P2;Temp;Humidity;BMP_temperature;BMP_pressure;BME280_temperature;BME280_humidity;BME280_pressure;Samples;Min_cycle;Max_cycle;Signal;HPM_P1;HPM_P2
2023/08/15 00:00:44;;;;;;;4.30;2.00;;;27.50;96.70;;;;;;5061635;28;20086;-73
2023/08/15 00:03:12;;;;;;;5.32;2.17;;;27.60;96.70;;;;;;5062116;28;20064;-73
2023/08/15 00:05:59;;;;;;;4.95;1.98;;;27.60;96.70;;;;;;5061368;28;20132;-73
2023/08/15 00:08:35;;;;;;;3.08;2.03;;;27.50;96.70;;;;;;5063101;28;20551;-73
2023/08/15 00:11:04;;;;;;;6.43;2.33;;;27.60;96.70;;;;;;5062826;28;20054;-73
2023/08/15 00:13:33;;;;;;;3.83;2.53;;;27.50;96.70;;;;;;5062447;28;20158;-73
2023/08/15 00:16:03;;;;;;;4.88;2.30;;;27.30;96.70;;;;;;5063104;28;20056;-72
2023/08/15 00:18:32;;;;;;;4.95;2.40;;;27.30;96.70;;;;;;5057940;28;20052;-73
2023/08/15 00:21:01;;;;;;;3.50;2.78;;;27.50;96.70;;;;;;5063192;28;20041;-73
2023/08/15 00:23:30;;;;;;;4.90;2.45;;;27.50;96.70;;;;;;5062766;28;20052;-72
2023/08/15 00:26:00;;;;;;;5.18;2.80;;;27.30;96.70;;;;;;5061308;28;20052;-72
2023/08/15 00:28:29;;;;;;;4.20;2.90;;;27.20;96.70;;;;;;5061140;28;20114;-72
2023/08/15 00:30:58;;;;;;;3.92;2.88;;;27.10;96.70;;;;;;5063204;28;20076;-73
2023/08/15 00:33:29;;;;;;;4.72;3.10;;;27.00;96.70;;;;;;5066032;28;20064;-73
2023/08/15 00:35:57;;;;;;;7.47;3.25;;;27.00;96.70;;;;;;5064339;28;20040;-72
2023/08/15 00:38:25;;;;;;;3.83;3.40;;;27.00;96.70;;;;;;5064900;28;20131;-73
2023/08/15 00:40:53;;;;;;;4.90;3.30;;;27.00;96.70;;;;;;5048633;28;20147;-73
2023/08/15 00:43:21;;;;;;;5.03;3.38;;;27.10;96.70;;;;;;5065843;28;20623;-72
2023/08/15 00:45:50;;;;;;;7.78;3.25;;;27.10;96.70;;;;;;5064744;28;20449;-73
2023/08/15 00:48:20;;;;;;;4.57;3.10;;;27.20;96.70;;;;;;5066185;28;20049;-74
2023/08/15 00:50:50;;;;;;;5.60;3.25;;;27.10;96.70;;;;;;5066039;28;20041;-73
2023/08/15 00:53:20;;;;;;;6.25;2.65;;;27.10;96.70;;;;;;5066020;28;20040;-72
2023/08/15 00:55:51;;;;;;;5.75;2.88;;;27.10;96.70;;;;;;5065147;28;20425;-73
2023/08/15 00:58:21;;;;;;;4.35;2.83;;;27.20;96.70;;;;;;5047938;28;20049;-72
2023/08/15 01:00:50;;;;;;;6.30;3.13;;;27.40;96.70;;;;;;5064667;28;20059;-72
2023/08/15 01:03:20;;;;;;;4.13;2.88;;;27.40;96.70;;;;;;5065448;28;20048;-73
2023/08/15 01:05:50;;;;;;;4.32;3.17;;;27.40;96.70;;;;;;5064793;28;20528;-73
2023/08/15 01:08:21;;;;;;;4.90;2.80;;;27.40;96.70;;;;;;5064268;28;20613;-73
2023/08/15 01:10:50;;;;;;;4.63;3.25;;;27.30;96.70;;;;;;5064347;28;20052;-73
2023/08/15 01:13:26;;;;;;;4.13;2.70;;;27.30;96.70;;;;;;5063824;28;20037;-73
2023/08/15 01:15:54;;;;;;;4.45;2.83;;;27.20;96.70;;;;;;5064467;28;20510;-73
2023/08/15 01:21:58;;;;;;;5.20;3.33;;;27.40;96.70;;;;;;5036681;28;20061;-73
2023/08/15 01:24:30;;;;;;;4.00;2.80;;;27.30;96.70;;;;;;5042413;28;20489;-73
2023/08/15 01:26:59;;;;;;;3.95;3.00;;;27.20;96.70;;;;;;5042587;28;20056;-73
2023/08/15 01:29:28;;;;;;;4.80;3.20;;;27.10;96.70;;;;;;5041469;28;20434;-73
2023/08/15 01:32:05;;;;;;;5.65;2.53;;;27.10;96.70;;;;;;5009575;28;20049;-73
2023/08/15 01:34:38;;;;;;;5.15;3.10;;;27.10;96.70;;;;;;5042026;28;20059;-72
2023/08/15 01:37:18;;;;;;;4.65;2.75;;;27.00;96.70;;;;;;5041768;28;20092;-72
2023/08/15 01:39:51;;;;;;;5.68;2.47;;;27.00;96.70;;;;;;5018324;28;20087;-73
2023/08/15 01:42:22;;;;;;;4.07;3.08;;;27.00;96.70;;;;;;5042070;28;20048;-73
2023/08/15 01:44:53;;;;;;;5.38;2.90;;;27.00;96.70;;;;;;5025476;28;20052;-73
2023/08/15 01:47:23;;;;;;;6.15;2.80;;;27.00;96.70;;;;;;5025420;28;20550;-73
2023/08/15 01:49:52;;;;;;;3.60;2.92;;;26.90;96.70;;;;;;5025171;28;20053;-73
2023/08/15 01:52:22;;;;;;;4.78;2.67;;;26.80;96.70;;;;;;5038250;28;20076;-72
2023/08/15 01:54:52;;;;;;;5.20;3.05;;;26.70;96.70;;;;;;5061854;28;20036;-73
2023/08/15 01:57:23;;;;;;;4.28;3.10;;;26.70;96.70;;;;;;5063814;28;20056;-73
2023/08/15 01:59:52;;;;;;;4.47;2.85;;;26.60;96.70;;;;;;5064898;28;20111;-72
2023/08/15 02:02:21;;;;;;;3.85;2.63;;;26.70;96.70;;;;;;5046225;28;20050;-73
2023/08/15 02:04:50;;;;;;;4.30;2.67;;;26.70;96.70;;;;;;5062698;28;20072;-73
2023/08/15 02:07:19;;;;;;;4.72;2.60;;;26.60;96.70;;;;;;5063265;28;20370;-72
2023/08/15 02:09:48;;;;;;;3.72;2.55;;;26.60;96.70;;;;;;5063436;28;20135;-73
2023/08/15 02:12:19;;;;;;;6.15;3.20;;;26.60;96.70;;;;;;5063253;28;20064;-73
2023/08/15 02:14:48;;;;;;;6.10;3.20;;;26.60;96.70;;;;;;5063529;28;20545;-72
2023/08/15 02:17:17;;;;;;;4.20;2.72;;;26.60;96.70;;;;;;5063323;28;20045;-72
2023/08/15 02:19:47;;;;;;;5.47;2.80;;;26.50;96.70;;;;;;5064624;28;20048;-73
2023/08/15 02:22:16;;;;;;;4.68;3.05;;;26.30;96.70;;;;;;5063026;28;20045;-72
2023/08/15 02:24:43;;;;;;;4.70;3.17;;;26.30;96.70;;;;;;5064567;28;20048;-72
2023/08/15 02:27:11;;;;;;;4.97;2.97;;;26.40;96.70;;;;;;5063479;28;20150;-72
2023/08/15 02:29:42;;;;;;;4.93;2.22;;;26.30;96.70;;;;;;5039146;28;20056;-73
2023/08/15 02:32:12;;;;;;;3.95;2.75;;;26.20;96.70;;;;;;5063342;28;20098;-73
2023/08/15 02:34:40;;;;;;;3.53;2.65;;;26.20;96.70;;;;;;5046125;28;20172;-72
2023/08/15 02:37:08;;;;;;;5.00;2.75;;;26.30;96.70;;;;;;5064347;28;20044;-73
2023/08/15 02:39:36;;;;;;;3.90;2.67;;;26.30;96.70;;;;;;5063377;28;20040;-73
2023/08/15 02:42:04;;;;;;;5.93;3.47;;;26.20;96.70;;;;;;5053996;28;20040;-72
2023/08/15 02:44:33;;;;;;;3.15;2.60;;;26.20;96.70;;;;;;5062460;28;20049;-72
2023/08/15 02:47:02;;;;;;;3.83;3.08;;;26.20;96.70;;;;;;5046254;28;20091;-72
2023/08/15 02:49:30;;;;;;;4.82;2.67;;;26.10;96.70;;;;;;5042653;28;20102;-72
2023/08/15 02:51:58;;;;;;;3.55;2.65;;;26.10;96.70;;;;;;5055608;28;20094;-73
2023/08/15 02:54:26;;;;;;;4.85;3.03;;;26.10;96.70;;;;;;5077605;28;20084;-73
2023/08/15 02:57:00;;;;;;;4.60;3.20;;;26.10;96.70;;;;;;5062089;28;20040;-73
2023/08/15 02:59:29;;;;;;;3.78;2.75;;;26.20;96.70;;;;;;5062205;28;20053;-72
2023/08/15 03:01:58;;;;;;;4.38;2.75;;;26.10;96.70;;;;;;5063996;28;20040;-72
2023/08/15 03:04:29;;;;;;;4.28;2.70;;;26.10;96.70;;;;;;5063428;28;20475;-72
2023/08/15 03:06:58;;;;;;;4.60;2.67;;;26.10;96.70;;;;;;5061634;28;20449;-73
2023/08/15 03:09:27;;;;;;;3.42;2.60;;;26.10;96.70;;;;;;5062211;28;20303;-72
2023/08/15 03:11:56;;;;;;;3.70;2.78;;;26.00;96.70;;;;;;5045929;28;20048;-72
2023/08/15 03:14:28;;;;;;;3.63;2.97;;;26.00;96.70;;;;;;5061518;28;20467;-72
2023/08/15 03:16:57;;;;;;;4.63;2.92;;;26.00;96.70;;;;;;5062224;28;20524;-72
2023/08/15 03:19:29;;;;;;;3.10;2.53;;;25.80;96.70;;;;;;5045019;28;20041;-73
2023/08/15 03:21:58;;;;;;;4.00;2.70;;;25.90;96.70;;;;;;5061726;28;20145;-73
2023/08/15 03:24:28;;;;;;;3.72;2.60;;;25.90;96.70;;;;;;5060408;28;20072;-74
2023/08/15 03:26:58;;;;;;;6.63;2.65;;;26.00;96.70;;;;;;5062255;28;20410;-73
2023/08/15 03:29:31;;;;;;;3.10;2.78;;;26.00;96.70;;;;;;5060646;28;20036;-73
2023/08/15 03:32:00;;;;;;;4.05;2.80;;;25.80;96.70;;;;;;5055113;28;20040;-72
2023/08/15 03:34:36;;;;;;;3.58;2.42;;;25.80;96.70;;;;;;5061596;28;20045;-73
2023/08/15 03:37:05;;;;;;;3.45;2.53;;;25.80;96.70;;;;;;5045276;28;20421;-73
2023/08/15 03:39:34;;;;;;;5.18;2.70;;;25.70;96.70;;;;;;5041842;28;20812;-73
2023/08/15 03:42:04;;;;;;;5.28;2.22;;;25.70;96.70;;;;;;5062413;28;20045;-73
2023/08/15 03:44:33;;;;;;;3.50;2.78;;;25.70;96.70;;;;;;5061195;28;20040;-73
2023/08/15 03:47:02;;;;;;;3.63;2.78;;;25.70;96.70;;;;;;5060571;28;20057;-73
2023/08/15 03:49:31;;;;;;;5.55;2.58;;;25.70;96.70;;;;;;5046937;28;20043;-73
2023/08/15 03:52:02;;;;;;;3.53;2.30;;;25.60;96.70;;;;;;5061686;28;20094;-72
2023/08/15 03:54:32;;;;;;;3.55;2.80;;;25.60;96.70;;;;;;5060855;28;20044;-73
2023/08/15 03:57:01;;;;;;;4.00;2.17;;;25.50;96.70;;;;;;5063025;28;20115;-73
2023/08/15 03:59:30;;;;;;;3.50;2.67;;;25.50;96.70;;;;;;5060588;28;20118;-73
2023/08/15 04:01:59;;;;;;;4.00;2.40;;;25.40;96.70;;;;;;5062629;28;20045;-73
2023/08/15 04:04:29;;;;;;;4.47;2.15;;;25.40;96.70;;;;;;5062575;28;20041;-73
2023/08/15 04:06:59;;;;;;;3.10;2.30;;;25.50;96.70;;;;;;5064500;28;20052;-73
2023/08/15 04:09:30;;;;;;;4.80;2.75;;;25.60;96.70;;;;;;5065535;28;20052;-72
2023/08/15 04:11:59;;;;;;;3.03;2.63;;;25.60;96.70;;;;;;5048936;28;20057;-73
2023/08/15 04:14:27;;;;;;;5.22;2.72;;;25.50;96.70;;;;;;5064812;28;20454;-74
2023/08/15 04:16:58;;;;;;;3.97;2.38;;;25.50;96.70;;;;;;5048478;28;20110;-73
2023/08/15 04:19:51;;;;;;;4.30;2.38;;;25.40;96.70;;;;;;5065634;28;20393;-73
2023/08/15 04:22:21;;;;;;;3.78;2.38;;;25.40;96.70;;;;;;5060876;28;20400;-73
2023/08/15 04:25:34;;;;;;;3.63;2.20;;;25.40;96.70;;;;;;5064942;28;20073;-73
2023/08/15 04:28:37;;;;;;;3.22;2.53;;;25.40;96.70;;;;;;5064386;28;20049;-72
2023/08/15 04:31:34;;;;;;;3.38;2.80;;;25.40;96.70;;;;;;5065473;28;20052;-72
2023/08/15 04:34:14;;;;;;;3.60;2.60;;;25.40;96.70;;;;;;5080730;28;20051;-73
2023/08/15 04:36:48;;;;;;;2.85;1.98;;;25.40;96.70;;;;;;5059369;28;20525;-73
2023/08/15 04:39:19;;;;;;;3.85;2.85;;;25.30;96.70;;;;;;5064523;28;20455;-73
2023/08/15 04:41:49;;;;;;;6.40;2.95;;;25.20;96.70;;;;;;5045724;28;20052;-73
2023/08/15 04:44:19;;;;;;;3.45;2.53;;;25.20;96.70;;;;;;5063855;28;20041;-73
2023/08/15 04:46:51;;;;;;;3.22;2.42;;;25.30;96.70;;;;;;5055882;28;20084;-73
2023/08/15 04:49:20;;;;;;;3.70;2.72;;;25.30;96.70;;;;;;5064265;28;20651;-73
2023/08/15 04:51:49;;;;;;;3.95;2.90;;;25.40;96.70;;;;;;5062562;28;20125;-73
2023/08/15 04:54:18;;;;;;;4.07;2.92;;;25.30;96.70;;;;;;5063484;28;20055;-73
2023/08/15 04:56:49;;;;;;;4.18;2.60;;;25.20;96.70;;;;;;5064015;28;20080;-73
2023/08/15 04:59:20;;;;;;;5.20;2.58;;;25.20;96.70;;;;;;5057837;28;20048;-73
2023/08/15 05:01:50;;;;;;;4.45;2.63;;;25.20;96.70;;;;;;5064320;28;20045;-72
2023/08/15 05:04:50;;;;;;;3.85;2.38;;;25.30;96.70;;;;;;5063768;28;20086;-73
2023/08/15 05:07:44;;;;;;;3.40;2.60;;;25.40;96.70;;;;;;5064465;28;20303;-73
2023/08/15 05:10:14;;;;;;;4.10;2.67;;;25.30;96.70;;;;;;5048437;28;20155;-73
2023/08/15 05:12:44;;;;;;;4.35;2.70;;;25.30;96.70;;;;;;5063829;28;20040;-73
2023/08/15 05:15:14;;;;;;;3.10;2.42;;;25.40;96.70;;;;;;5064500;28;20122;-73
2023/08/15 05:17:43;;;;;;;4.10;3.17;;;25.50;96.70;;;;;;5047494;28;20055;-72
2023/08/15 05:20:13;;;;;;;4.63;2.60;;;25.50;96.70;;;;;;5068766;28;20079;-73
2023/08/15 05:22:41;;;;;;;4.28;2.65;;;25.50;96.70;;;;;;5063758;28;20049;-72
2023/08/15 05:25:10;;;;;;;3.72;2.63;;;25.50;96.70;;;;;;5063205;28;20131;-72
2023/08/15 05:27:45;;;;;;;3.28;2.70;;;25.60;96.70;;;;;;5063361;28;20167;-73
2023/08/15 05:30:16;;;;;;;2.65;2.35;;;25.50;96.70;;;;;;5063598;28;20701;-73
2023/08/15 05:32:45;;;;;;;4.68;2.80;;;25.50;96.70;;;;;;5063971;28;20048;-73
2023/08/15 05:35:14;;;;;;;4.97;2.88;;;25.60;96.70;;;;;;5080726;28;20131;-73
2023/08/15 05:37:42;;;;;;;5.40;3.05;;;25.70;96.70;;;;;;5080283;28;20052;-73
2023/08/15 05:40:11;;;;;;;3.72;2.90;;;25.70;96.70;;;;;;5056778;28;20132;-73
2023/08/15 05:42:40;;;;;;;3.85;2.50;;;25.70;96.70;;;;;;5063421;28;20045;-72
2023/08/15 05:45:09;;;;;;;4.50;2.80;;;25.70;96.70;;;;;;5063348;28;20044;-73
2023/08/15 05:47:40;;;;;;;3.95;2.90;;;25.70;96.70;;;;;;5063857;28;21100;-72
2023/08/15 05:50:09;;;;;;;3.38;2.35;;;25.70;96.70;;;;;;5046839;28;20098;-72
2023/08/15 05:52:38;;;;;;;4.43;2.55;;;25.80;96.70;;;;;;5064720;28;20044;-72
2023/08/15 05:55:07;;;;;;;4.13;2.83;;;25.80;96.70;;;;;;5063416;28;20103;-73
2023/08/15 05:57:36;;;;;;;5.72;2.75;;;25.90;96.70;;;;;;5064207;28;20071;-73
2023/08/15 06:00:06;;;;;;;5.55;2.55;;;26.00;96.70;;;;;;5065025;28;20048;-73
2023/08/15 06:02:41;;;;;;;3.80;2.58;;;26.00;96.70;;;;;;5063431;28;20052;-72
2023/08/15 06:05:09;;;;;;;5.10;2.70;;;26.00;96.70;;;;;;5063250;28;20090;-72
2023/08/15 06:07:38;;;;;;;3.78;2.63;;;26.00;96.70;;;;;;5043221;28;20540;-72
2023/08/15 06:10:07;;;;;;;4.22;2.50;;;26.00;96.70;;;;;;5062956;28;20040;-74
2023/08/15 06:12:36;;;;;;;4.75;2.80;;;25.90;96.70;;;;;;5061706;28;20048;-74
2023/08/15 06:15:06;;;;;;;3.95;2.78;;;26.00;96.70;;;;;;5062477;28;20040;-73
2023/08/15 06:17:34;;;;;;;4.72;2.40;;;26.00;96.70;;;;;;5064326;28;20045;-73
2023/08/15 06:20:05;;;;;;;4.50;2.60;;;26.10;96.70;;;;;;5062502;28;20414;-72
2023/08/15 06:22:34;;;;;;;5.15;2.78;;;26.10;96.70;;;;;;5062216;28;20049;-73
2023/08/15 06:25:02;;;;;;;4.72;2.78;;;26.10;96.70;;;;;;5062992;28;20044;-73
2023/08/15 06:27:31;;;;;;;4.43;3.00;;;26.10;96.70;;;;;;5063089;28;20044;-73
2023/08/15 06:29:59;;;;;;;7.07;3.13;;;26.20;96.70;;;;;;5053925;28;20048;-73
2023/08/15 06:32:28;;;;;;;4.32;2.90;;;26.20;96.70;;;;;;5062943;28;20084;-73
2023/08/15 06:34:57;;;;;;;3.50;2.88;;;26.20;96.70;;;;;;5062154;28;20079;-72
2023/08/15 06:37:27;;;;;;;3.65;3.05;;;26.20;96.70;;;;;;5062525;28;20056;-72
2023/08/15 06:39:56;;;;;;;4.78;2.97;;;26.20;96.70;;;;;;5063511;28;20474;-73
2023/08/15 06:42:24;;;;;;;4.05;3.35;;;26.30;96.70;;;;;;5054199;28;20070;-73
2023/08/15 06:45:04;;;;;;;4.63;3.20;;;26.40;96.70;;;;;;5062549;28;21002;-72
2023/08/15 06:47:32;;;;;;;3.85;2.90;;;26.30;96.70;;;;;;5064201;28;20056;-73
2023/08/15 06:50:01;;;;;;;3.38;2.78;;;26.40;96.70;;;;;;5062426;28;20090;-73
2023/08/15 06:52:31;;;;;;;4.97;3.45;;;26.50;96.70;;;;;;5063280;28;20433;-73
2023/08/15 06:55:03;;;;;;;4.43;3.80;;;26.50;96.70;;;;;;5045753;28;20082;-73
2023/08/15 06:57:32;;;;;;;5.13;3.30;;;26.40;96.70;;;;;;5063439;28;20059;-73
2023/08/15 07:00:02;;;;;;;5.30;2.97;;;26.50;96.70;;;;;;5063772;28;20040;-72
2023/08/15 07:02:31;;;;;;;6.05;3.28;;;26.60;96.70;;;;;;5063132;28;20036;-72
2023/08/15 07:04:59;;;;;;;3.67;3.08;;;26.70;96.70;;;;;;5063192;28;20115;-73
2023/08/15 07:07:30;;;;;;;4.95;3.28;;;26.80;96.70;;;;;;5061715;28;20566;-73
2023/08/15 07:09:58;;;;;;;4.80;3.60;;;26.90;96.70;;;;;;5062039;28;20044;-73
2023/08/15 07:12:27;;;;;;;4.97;3.67;;;26.90;96.70;;;;;;5061507;28;20052;-73
2023/08/15 07:14:55;;;;;;;5.13;3.22;;;27.00;96.70;;;;;;5059049;28;20070;-73
2023/08/15 07:17:24;;;;;;;5.88;3.70;;;26.90;96.70;;;;;;5062528;28;20125;-73
2023/08/15 07:19:53;;;;;;;3.97;3.55;;;27.00;96.70;;;;;;5059762;28;20049;-72
2023/08/15 07:22:21;;;;;;;6.30;3.67;;;27.10;96.70;;;;;;5063264;28;20513;-73
2023/08/15 07:24:52;;;;;;;5.03;4.03;;;27.10;96.70;;;;;;5061416;28;20044;-73
2023/08/15 07:27:21;;;;;;;5.68;4.10;;;27.10;96.70;;;;;;5062714;28;20044;-72
2023/08/15 07:29:49;;;;;;;7.60;5.45;;;27.20;96.70;;;;;;5062938;28;20044;-73
2023/08/15 07:32:17;;;;;;;5.38;3.95;;;27.20;96.70;;;;;;5063627;28;20050;-73
2023/08/15 07:34:47;;;;;;;5.55;5.05;;;27.30;96.70;;;;;;5063161;28;20044;-74
2023/08/15 07:37:16;;;;;;;5.15;4.65;;;27.20;96.70;;;;;;5041378;28;20060;-73
2023/08/15 07:39:44;;;;;;;6.38;4.28;;;27.20;96.70;;;;;;5061368;28;20148;-73
2023/08/15 07:42:15;;;;;;;8.52;5.00;;;27.30;96.70;;;;;;5044576;28;20049;-73
2023/08/15 07:44:43;;;;;;;5.70;4.47;;;27.30;96.70;;;;;;5062527;28;20047;-73
2023/08/15 07:47:12;;;;;;;6.53;4.85;;;27.40;96.70;;;;;;5045610;28;20617;-73
2023/08/15 07:49:40;;;;;;;6.80;4.80;;;27.40;96.70;;;;;;5063196;28;20591;-73
2023/08/15 07:52:09;;;;;;;5.63;4.57;;;27.50;96.70;;;;;;5061581;28;20040;-72
2023/08/15 07:54:37;;;;;;;4.85;4.43;;;27.50;96.70;;;;;;5062570;28;20111;-73
2023/08/15 07:57:05;;;;;;;5.25;4.75;;;27.60;96.70;;;;;;5062578;28;20048;-73
2023/08/15 07:59:35;;;;;;;4.53;3.78;;;27.70;96.70;;;;;;5061239;28;20172;-72
2023/08/15 08:02:06;;;;;;;8.05;4.13;;;27.80;96.70;;;;;;5062928;28;20451;-73
2023/08/15 08:04:34;;;;;;;4.93;3.97;;;27.80;96.70;;;;;;5062604;28;20040;-72
2023/08/15 08:07:02;;;;;;;4.88;4.32;;;27.90;96.70;;;;;;5060077;28;20073;-73
2023/08/15 08:09:31;;;;;;;5.20;4.70;;;27.80;96.70;;;;;;5053062;28;20045;-73
2023/08/15 08:11:59;;;;;;;7.32;4.20;;;27.80;96.70;;;;;;5054733;28;20246;-73
2023/08/15 08:14:28;;;;;;;6.03;3.85;;;27.90;96.70;;;;;;5062551;28;20440;-73
2023/08/15 08:16:58;;;;;;;5.05;4.30;;;28.00;96.70;;;;;;5062852;28;20050;-73
2023/08/15 08:19:27;;;;;;;4.32;3.80;;;28.00;96.70;;;;;;5062550;28;20044;-73
2023/08/15 08:21:55;;;;;;;4.85;3.67;;;28.10;96.70;;;;;;5061761;28;20044;-73
2023/08/15 08:24:24;;;;;;;4.00;3.70;;;28.20;96.70;;;;;;5063103;28;20098;-73
2023/08/15 08:26:52;;;;;;;5.53;4.30;;;28.20;96.70;;;;;;5061268;28;20330;-73
2023/08/15 08:29:21;;;;;;;5.25;3.92;;;28.30;96.70;;;;;;5060977;28;20056;-73
2023/08/15 08:31:49;;;;;;;4.63;3.80;;;28.40;96.70;;;;;;5044849;28;20064;-73
2023/08/15 08:34:19;;;;;;;5.25;4.13;;;28.40;96.70;;;;;;5062053;28;20339;-72
2023/08/15 08:36:47;;;;;;;7.57;4.75;;;28.50;96.70;;;;;;5061929;28;20044;-72
2023/08/15 08:39:15;;;;;;;4.95;4.55;;;28.50;96.70;;;;;;5061644;28;20040;-73
2023/08/15 08:41:58;;;;;;;4.38;3.97;;;28.60;96.70;;;;;;5060963;28;20037;-73
2023/08/15 08:44:29;;;;;;;4.80;4.25;;;28.60;96.70;;;;;;5060857;28;20037;-73
2023/08/15 08:46:59;;;;;;;4.35;4.05;;;28.70;96.70;;;;;;5062594;28;20040;-73
2023/08/15 08:49:29;;;;;;;5.68;4.30;;;28.70;96.70;;;;;;5062323;28;20508;-73
2023/08/15 08:51:59;;;;;;;4.72;4.28;;;28.80;96.70;;;;;;5045054;28;20184;-72
2023/08/15 08:54:27;;;;;;;4.32;3.65;;;28.90;96.70;;;;;;5064633;28;20032;-72
2023/08/15 08:57:16;;;;;;;4.32;3.75;;;28.90;96.70;;;;;;5064521;28;20079;-72
2023/08/15 08:59:46;;;;;;;5.55;3.85;;;29.00;96.70;;;;;;5065527;28;20075;-73
2023/08/15 09:02:19;;;;;;;5.45;4.10;;;29.10;96.70;;;;;;5060062;28;20395;-73
2023/08/15 09:04:49;;;;;;;4.43;4.03;;;29.10;96.70;;;;;;5063809;28;20413;-72
2023/08/15 09:07:17;;;;;;;4.95;3.90;;;29.20;96.70;;;;;;5062905;28;20102;-73
2023/08/15 09:09:45;;;;;;;4.25;3.72;;;29.30;96.70;;;;;;5064106;28;20503;-73
2023/08/15 09:12:32;;;;;;;3.88;3.45;;;29.40;96.70;;;;;;5064232;28;20581;-72
2023/08/15 09:15:00;;;;;;;4.60;3.75;;;29.50;96.70;;;;;;5064372;28;20143;-73
2023/08/15 09:17:29;;;;;;;5.35;3.88;;;29.60;96.70;;;;;;5065933;28;20163;-72
2023/08/15 09:20:09;;;;;;;6.22;4.10;;;29.80;96.70;;;;;;5064715;28;20075;-72
2023/08/15 09:22:41;;;;;;;3.92;3.50;;;29.80;96.70;;;;;;5057479;28;20405;-72
2023/08/15 09:25:10;;;;;;;5.00;4.13;;;29.80;96.70;;;;;;5069623;28;20517;-73
2023/08/15 09:27:39;;;;;;;3.78;3.40;;;29.90;96.70;;;;;;5063749;28;20067;-73
2023/08/15 09:30:09;;;;;;;7.15;3.67;;;29.90;96.70;;;;;;5063597;28;20049;-73
2023/08/15 09:32:39;;;;;;;5.05;3.50;;;30.00;96.70;;;;;;5063472;28;20054;-73
2023/08/15 09:35:12;;;;;;;5.50;3.63;;;30.00;96.70;;;;;;5064095;28;20156;-73
2023/08/15 09:37:41;;;;;;;4.75;3.60;;;30.00;96.70;;;;;;5047052;28;20071;-72
2023/08/15 09:40:13;;;;;;;5.40;3.60;;;30.10;96.70;;;;;;5065291;28;20575;-72
2023/08/15 09:42:43;;;;;;;4.78;3.55;;;30.10;96.70;;;;;;5063231;28;20540;-72
2023/08/15 09:45:12;;;;;;;3.72;3.42;;;30.10;96.70;;;;;;5065402;28;20058;-72
2023/08/15 09:47:41;;;;;;;4.60;3.28;;;30.30;96.70;;;;;;5064117;28;20413;-73
2023/08/15 09:50:12;;;;;;;3.90;3.35;;;30.40;96.70;;;;;;5065580;28;20040;-71
2023/08/15 09:52:42;;;;;;;5.32;3.50;;;30.60;96.70;;;;;;5063340;28;20545;-73
2023/08/15 09:55:11;;;;;;;5.07;3.20;;;30.60;96.70;;;;;;5064700;28;20044;-73
2023/08/15 09:57:40;;;;;;;3.78;3.40;;;30.70;96.70;;;;;;5064428;28;20497;-72
2023/08/15 10:00:11;;;;;;;4.57;3.65;;;30.80;96.70;;;;;;5063720;28;20051;-73
2023/08/15 10:02:44;;;;;;;3.60;3.33;;;30.80;96.70;;;;;;5056548;28;20052;-71
2023/08/15 10:05:18;;;;;;;5.13;3.35;;;30.90;96.70;;;;;;5064159;28;20123;-73
2023/08/15 10:07:48;;;;;;;5.85;3.22;;;30.90;96.70;;;;;;5038512;28;20091;-73
2023/08/15 10:10:17;;;;;;;7.75;3.83;;;31.00;96.70;;;;;;5064596;28;20151;-73
2023/08/15 10:12:47;;;;;;;4.60;3.53;;;31.10;96.70;;;;;;5062986;28;20059;-73
2023/08/15 10:15:16;;;;;;;3.72;3.17;;;31.20;96.70;;;;;;5063221;28;20405;-73
2023/08/15 10:17:45;;;;;;;4.68;2.90;;;31.40;96.70;;;;;;5062209;28;20076;-72
2023/08/15 10:20:17;;;;;;;4.07;3.08;;;31.50;96.70;;;;;;5063031;28;20090;-73
2023/08/15 10:22:49;;;;;;;4.82;3.33;;;31.80;96.70;;;;;;5064541;28;20541;-73
2023/08/15 10:25:35;;;;;;;5.32;3.15;;;31.90;96.70;;;;;;5064275;28;20052;-72
2023/08/15 10:28:11;;;;;;;2.90;2.65;;;31.90;96.70;;;;;;5045619;28;20655;-73
2023/08/15 10:30:41;;;;;;;3.47;3.17;;;32.00;96.70;;;;;;5064538;28;20491;-73
2023/08/15 10:33:20;;;;;;;4.00;2.83;;;32.10;96.70;;;;;;5063047;28;20135;-72
2023/08/15 10:36:04;;;;;;;3.40;3.10;;;32.10;96.70;;;;;;5064728;28;20051;-73
2023/08/15 10:38:39;;;;;;;3.95;2.78;;;32.20;96.70;;;;;;5055283;28;20536;-72
2023/08/15 10:41:13;;;;;;;7.22;3.60;;;32.30;96.70;;;;;;5064308;28;20575;-73
2023/08/15 10:43:47;;;;;;;4.47;2.63;;;32.50;96.70;;;;;;5061856;28;20490;-73
2023/08/15 10:46:18;;;;;;;3.08;2.72;;;32.50;96.70;;;;;;5062596;28;20047;-73
2023/08/15 10:48:47;;;;;;;3.92;2.90;;;32.60;96.70;;;;;;5062570;28;20098;-72
2023/08/15 10:51:32;;;;;;;3.78;3.03;;;32.70;96.70;;;;;;5059006;28;20040;-73
2023/08/15 10:54:01;;;;;;;3.90;2.95;;;32.60;96.70;;;;;;5058548;28;20041;-72
2023/08/15 10:56:31;;;;;;;4.10;2.72;;;32.70;96.70;;;;;;5061602;28;20072;-73
2023/08/15 10:59:04;;;;;;;3.95;2.97;;;32.70;96.70;;;;;;5062533;28;20556;-73
2023/08/15 11:01:32;;;;;;;5.10;2.42;;;32.90;96.70;;;;;;5062276;28;20059;-73
2023/08/15 11:04:01;;;;;;;3.70;2.50;;;33.10;96.70;;;;;;5060708;28;20041;-76
2023/08/15 11:06:40;;;;;;;3.00;2.80;;;33.30;96.70;;;;;;5062317;28;20045;-76
2023/08/15 11:09:10;;;;;;;3.85;2.60;;;33.30;96.70;;;;;;5043947;28;20550;-77
2023/08/15 11:11:39;;;;;;;2.92;2.70;;;33.00;96.70;;;;;;5061003;28;20735;-80
2023/08/15 11:14:15;;;;;;;2.92;2.63;;;33.10;96.70;;;;;;5062506;28;20582;-80
2023/08/15 11:16:44;;;;;;;4.07;2.97;;;33.10;96.70;;;;;;5060923;28;20048;-78
2023/08/15 11:19:15;;;;;;;3.03;2.58;;;33.20;96.70;;;;;;5063585;28;20040;-79
2023/08/15 11:21:46;;;;;;;2.90;2.50;;;33.60;96.70;;;;;;5061812;28;20059;-81
2023/08/15 11:24:14;;;;;;;4.47;3.03;;;33.90;96.70;;;;;;5058545;28;20143;-79
2023/08/15 11:26:42;;;;;;;6.30;3.22;;;33.80;96.70;;;;;;5061585;28;20131;-77
2023/08/15 11:29:12;;;;;;;3.13;2.63;;;33.90;96.70;;;;;;5060466;28;20064;-79
2023/08/15 11:31:41;;;;;;;3.55;2.90;;;34.00;96.70;;;;;;5054649;28;20144;-79
2023/08/15 11:34:11;;;;;;;5.50;2.80;;;34.20;96.70;;;;;;5039480;28;20521;-78
2023/08/15 11:36:39;;;;;;;3.30;2.70;;;34.40;96.70;;;;;;5062340;28;20086;-79
2023/08/15 11:39:13;;;;;;;3.83;2.63;;;34.50;96.70;;;;;;5063832;28;20040;-80
2023/08/15 11:41:43;;;;;;;3.72;2.67;;;34.60;96.70;;;;;;5046184;28;20052;-80
2023/08/15 11:44:11;;;;;;;4.97;2.70;;;34.60;96.70;;;;;;5063593;28;20044;-79
2023/08/15 11:46:42;;;;;;;4.75;3.03;;;34.60;96.70;;;;;;5062676;28;20037;-82
2023/08/15 11:49:17;;;;;;;5.55;2.90;;;34.80;96.70;;;;;;5047644;28;20044;-83
2023/08/15 11:51:45;;;;;;;3.80;2.88;;;34.70;96.70;;;;;;5060925;28;20371;-79
2023/08/15 11:54:15;;;;;;;4.88;2.72;;;34.80;96.70;;;;;;5059601;28;20037;-81
2023/08/15 11:56:49;;;;;;;5.47;3.33;;;34.80;96.70;;;;;;5062266;28;20052;-79
2023/08/15 11:59:20;;;;;;;3.50;2.67;;;34.80;96.70;;;;;;5061865;28;20482;-80
2023/08/15 12:01:49;;;;;;;3.38;2.95;;;34.90;96.70;;;;;;5061918;28;20033;-82
2023/08/15 12:04:17;;;;;;;2.75;2.55;;;35.00;96.70;;;;;;5063028;28;20036;-83
2023/08/15 12:06:45;;;;;;;4.40;2.45;;;35.00;96.70;;;;;;5063210;28;20048;-82
2023/08/15 12:09:15;;;;;;;4.13;3.15;;;35.10;96.70;;;;;;5062192;28;20043;-80
2023/08/15 12:11:44;;;;;;;3.90;3.20;;;35.30;96.70;;;;;;5066225;28;20051;-83
2023/08/15 12:14:18;;;;;;;3.13;2.83;;;35.20;96.70;;;;;;5064729;28;20231;-87
2023/08/15 12:16:47;;;;;;;3.47;3.17;;;35.20;96.70;;;;;;5055703;28;20165;-84
2023/08/15 12:19:16;;;;;;;4.80;3.08;;;35.20;96.70;;;;;;5066071;28;20441;-86
2023/08/15 12:21:51;;;;;;;3.58;3.03;;;35.20;96.70;;;;;;5058117;28;20102;-83
2023/08/15 12:24:21;;;;;;;4.18;2.90;;;35.20;96.70;;;;;;5055358;28;20047;-82
2023/08/15 12:26:49;;;;;;;3.70;3.20;;;35.30;96.70;;;;;;5062994;28;20040;-80
2023/08/15 12:29:17;;;;;;;4.43;3.20;;;35.40;96.70;;;;;;5065035;28;20040;-80
2023/08/15 12:32:06;;;;;;;6.40;3.35;;;35.40;96.70;;;;;;5058500;28;20596;-79
2023/08/15 12:34:34;;;;;;;4.43;3.28;;;35.50;96.70;;;;;;5058603;28;20403;-80
2023/08/15 12:37:03;;;;;;;5.63;3.17;;;35.50;96.70;;;;;;5062802;28;20059;-78
2023/08/15 12:39:33;;;;;;;4.55;2.75;;;35.50;96.70;;;;;;5065027;28;20097;-83
2023/08/15 12:42:02;;;;;;;4.07;2.50;;;35.60;96.70;;;;;;5048005;28;20098;-81
2023/08/15 12:44:31;;;;;;;4.43;2.97;;;35.70;96.70;;;;;;5062080;28;20478;-81
2023/08/15 12:47:00;;;;;;;4.47;3.13;;;35.90;96.70;;;;;;5064431;28;21468;-81
2023/08/15 12:49:29;;;;;;;3.95;3.47;;;35.80;96.70;;;;;;5063763;28;20040;-83
2023/08/15 12:51:58;;;;;;;5.15;3.42;;;35.70;96.70;;;;;;5068108;28;20056;-83
2023/08/15 12:54:26;;;;;;;4.18;3.55;;;35.50;96.70;;;;;;5059159;28;20041;-83
2023/08/15 12:56:56;;;;;;;5.90;4.10;;;35.50;96.70;;;;;;5068768;28;20056;-82
2023/08/15 12:59:25;;;;;;;5.85;4.20;;;35.50;96.70;;;;;;5068879;28;20052;-80
2023/08/15 13:01:54;;;;;;;7.28;4.00;;;35.40;96.70;;;;;;5067285;28;20038;-82
2023/08/15 13:04:23;;;;;;;5.00;3.85;;;35.40;96.70;;;;;;5045189;28;20070;-81
2023/08/15 13:06:52;;;;;;;4.40;4.00;;;35.20;96.70;;;;;;5066044;28;20405;-80
2023/08/15 13:09:20;;;;;;;4.47;3.50;;;35.20;96.70;;;;;;5058524;28;20049;-78